createdAt,value
2018-09-30T00:01:35.598Z,102005.16
2018-09-30T00:04:04.748Z,102003.02
2018-09-30T00:06:33.947Z,101995.01
2018-09-30T00:09:03.011Z,101995.09
2018-09-30T00:11:32.006Z,101990.64
2018-09-30T00:14:01.231Z,101985.54
2018-09-30T00:16:30.222Z,101988.37
2018-09-30T00:18:59.270Z,101989.72
2018-09-30T00:21:28.281Z,101982.89
2018-09-30T00:24:02.702Z,101985.09
2018-09-30T00:26:37.059Z,101981.22
2018-09-30T00:29:06.127Z,101977.54
2018-09-30T00:31:35.265Z,101977.95
2018-09-30T00:34:09.457Z,101983.48
2018-09-30T00:36:38.686Z,101978.72
2018-09-30T00:39:07.867Z,101970.34
2018-09-30T00:41:37.069Z,101971.98
2018-09-30T00:44:06.342Z,101973.81
2018-09-30T00:46:35.523Z,101964.67
2018-09-30T00:49:04.792Z,101959.16
2018-09-30T00:51:33.778Z,101955.59
2018-09-30T00:54:03.031Z,101954.55
2018-09-30T00:56:32.109Z,101952.36
2018-09-30T00:59:01.121Z,101944.31
2018-09-30T01:01:30.155Z,101938.47
2018-09-30T01:03:59.456Z,101939.89
2018-09-30T01:06:28.695Z,101936.62
2018-09-30T01:08:57.690Z,101941.50
2018-09-30T01:11:26.988Z,101930.11
2018-09-30T01:13:56.143Z,101923.23
2018-09-30T01:16:25.166Z,101914.72
2018-09-30T01:18:54.222Z,101911.05
2018-09-30T01:21:23.596Z,101904.20
2018-09-30T01:23:52.635Z,101904.03
2018-09-30T01:26:21.641Z,101903.41
2018-09-30T01:28:50.657Z,101900.89
2018-09-30T01:31:19.775Z,101898.25
2018-09-30T01:33:48.837Z,101900.41
2018-09-30T01:36:17.834Z,101897.40
2018-09-30T01:38:47.027Z,101891.98
2018-09-30T01:41:16.058Z,101893.46
2018-09-30T01:43:45.077Z,101895.19
2018-09-30T01:46:14.063Z,101894.19
2018-09-30T01:48:43.242Z,101890.77
2018-09-30T01:51:12.279Z,101885.22
2018-09-30T01:53:41.280Z,101882.17
2018-09-30T01:56:10.261Z,101880.23
2018-09-30T01:58:39.289Z,101887.87
2018-09-30T02:01:08.293Z,101880.19
2018-09-30T02:03:37.352Z,101883.05
2018-09-30T02:06:06.032Z,101879.59
2018-09-30T02:08:35.150Z,101878.20
2018-09-30T02:11:04.188Z,101874.94
2018-09-30T02:13:33.164Z,101873.88
2018-09-30T02:16:02.246Z,101868.38
2018-09-30T02:18:31.255Z,101863.02
2018-09-30T02:21:00.250Z,101862.33
2018-09-30T02:23:29.223Z,101858.19
2018-09-30T02:25:58.222Z,101853.06
2018-09-30T02:28:27.622Z,101855.67
2018-09-30T02:30:56.604Z,101846.36
2018-09-30T02:33:25.583Z,101846.87
2018-09-30T02:35:54.561Z,101843.58
2018-09-30T02:38:23.546Z,101843.27
2018-09-30T02:40:52.522Z,101840.66
2018-09-30T02:43:21.509Z,101830.98
2018-09-30T02:45:50.497Z,101824.75
2018-09-30T02:48:19.686Z,101823.68
2018-09-30T02:50:48.882Z,101814.07
2018-09-30T02:53:17.858Z,101807.45
2018-09-30T02:55:46.836Z,101810.86
2018-09-30T02:58:15.802Z,101803.92
2018-09-30T03:00:44.777Z,101804.55
2018-09-30T03:03:13.902Z,101804.38
2018-09-30T03:05:43.151Z,101799.63
2018-09-30T03:08:17.460Z,101797.77
2018-09-30T03:10:46.635Z,101790.20
2018-09-30T03:13:15.598Z,101793.11
2018-09-30T03:15:44.776Z,101794.91
2018-09-30T03:18:13.777Z,101787.52
2018-09-30T03:20:43.075Z,101781.52
2018-09-30T03:23:12.041Z,101781.31
2018-09-30T03:25:41.026Z,101776.27
2018-09-30T03:28:10.011Z,101774.08
2018-09-30T03:30:39.103Z,101763.50
2018-09-30T03:33:08.073Z,101764.36
2018-09-30T03:35:37.037Z,101759.02
2018-09-30T03:38:06.056Z,101755.69
2018-09-30T03:40:35.029Z,101750.16
2018-09-30T03:43:04.047Z,101744.94
2018-09-30T03:45:33.047Z,101749.13
2018-09-30T03:48:02.246Z,101748.34
2018-09-30T03:50:31.247Z,101738.12
2018-09-30T03:53:00.227Z,101735.47
2018-09-30T03:55:29.567Z,101736.50
2018-09-30T03:57:58.519Z,101728.55
2018-09-30T04:00:27.722Z,101724.47
2018-09-30T04:02:56.748Z,101718.44
2018-09-30T04:05:32.482Z,101714.16
2018-09-30T04:08:01.518Z,101718.55
2018-09-30T04:10:30.515Z,101715.95
2018-09-30T04:12:59.550Z,101717.13
2018-09-30T04:15:28.978Z,101714.34
2018-09-30T04:17:57.997Z,101708.30
2018-09-30T04:20:26.978Z,101711.95
2018-09-30T04:22:55.946Z,101715.03
2018-09-30T04:25:24.928Z,101704.93
2018-09-30T04:27:53.921Z,101702.85
2018-09-30T04:30:22.931Z,101697.81
2018-09-30T04:32:51.922Z,101696.80
2018-09-30T04:35:21.193Z,101692.09
2018-09-30T04:37:50.165Z,101699.75
2018-09-30T04:40:19.129Z,101690.51
2018-09-30T04:42:48.316Z,101691.92
2018-09-30T04:45:17.605Z,101699.38
2018-09-30T04:47:46.600Z,101701.20
2018-09-30T04:50:15.584Z,101703.31
2018-09-30T04:52:44.573Z,101699.22
2018-09-30T04:55:13.531Z,101699.14
2018-09-30T04:57:42.726Z,101709.89
2018-09-30T05:00:11.759Z,101702.41
2018-09-30T05:02:40.861Z,101705.98
2018-09-30T05:05:09.892Z,101696.73
2018-09-30T05:07:38.937Z,101697.63
2018-09-30T05:10:08.123Z,101698.06
2018-09-30T05:12:37.088Z,101693.78
2018-09-30T05:15:06.042Z,101691.50
2018-09-30T05:17:35.005Z,101689.79
2018-09-30T05:20:04.055Z,101693.36
2018-09-30T05:22:33.166Z,101690.93
2018-09-30T05:25:02.601Z,101688.16
2018-09-30T05:27:32.013Z,101684.53
2018-09-30T05:30:01.042Z,101684.41
2018-09-30T05:32:30.149Z,101686.63
2018-09-30T05:34:59.308Z,101682.66
2018-09-30T05:37:28.370Z,101679.69
2018-09-30T05:39:57.412Z,101677.23
2018-09-30T05:42:26.661Z,101679.27
2018-09-30T05:44:55.933Z,101673.73
2018-09-30T05:47:25.383Z,101680.87
2018-09-30T05:49:54.383Z,101683.82
2018-09-30T05:52:23.639Z,101673.47
2018-09-30T05:54:52.947Z,101678.33
2018-09-30T05:57:22.088Z,101692.98
2018-09-30T05:59:51.085Z,101688.02
2018-09-30T06:02:20.064Z,101685.78
2018-09-30T06:04:49.150Z,101691.52
2018-09-30T06:07:18.146Z,101681.86
2018-09-30T06:09:47.156Z,101685.23
2018-09-30T06:12:16.447Z,101680.67
2018-09-30T06:14:45.635Z,101681.59
2018-09-30T06:17:15.030Z,101681.09
2018-09-30T06:19:44.066Z,101687.22
2018-09-30T06:22:13.168Z,101683.48
2018-09-30T06:24:42.298Z,101688.72
2018-09-30T06:27:11.340Z,101683.66
2018-09-30T06:29:40.664Z,101679.56
2018-09-30T06:32:09.719Z,101680.13
2018-09-30T06:34:38.611Z,101674.44
2018-09-30T06:37:07.746Z,101671.74
2018-09-30T06:39:36.806Z,101676.75
2018-09-30T06:42:06.321Z,101673.52
2018-09-30T06:44:35.500Z,101664.33
2018-09-30T06:47:04.754Z,101672.63
2018-09-30T06:49:33.868Z,101671.21
2018-09-30T06:52:03.016Z,101661.66
2018-09-30T06:54:32.308Z,101664.56
2018-09-30T06:57:01.297Z,101669.03
2018-09-30T06:59:30.336Z,101669.37
2018-09-30T07:01:59.372Z,101659.73
2018-09-30T07:04:28.703Z,101662.18
2018-09-30T07:06:57.713Z,101658.97
2018-09-30T07:09:26.742Z,101655.95
2018-09-30T07:11:55.717Z,101654.95
2018-09-30T07:14:24.796Z,101651.33
2018-09-30T07:16:53.871Z,101647.95
2018-09-30T07:19:22.776Z,101647.44
2018-09-30T07:21:51.763Z,101643.77
2018-09-30T07:24:21.015Z,101640.73
2018-09-30T07:26:50.262Z,101648.00
2018-09-30T07:29:19.275Z,101650.98
2018-09-30T07:31:48.258Z,101648.20
2018-09-30T07:34:17.477Z,101653.07
2018-09-30T07:36:46.525Z,101642.95
2018-09-30T07:39:15.560Z,101641.50
2018-09-30T07:41:44.555Z,101643.47
2018-09-30T07:44:13.587Z,101639.36
2018-09-30T07:46:42.649Z,101641.81
2018-09-30T07:49:11.975Z,101633.30
2018-09-30T07:51:41.390Z,101635.44
2018-09-30T07:54:10.678Z,101641.95
2018-09-30T07:56:39.874Z,101640.21
2018-09-30T07:59:09.188Z,101638.42
2018-09-30T08:01:38.235Z,101642.42
2018-09-30T08:04:07.757Z,101641.13
2018-09-30T08:06:36.793Z,101635.42
2018-09-30T08:09:07.943Z,101627.60
2018-09-30T08:11:37.163Z,101623.59
2018-09-30T08:14:06.282Z,101625.82
2018-09-30T08:16:35.333Z,101621.16
2018-09-30T08:19:04.328Z,101611.02
2018-09-30T08:21:33.341Z,101611.34
2018-09-30T08:24:02.534Z,101605.02
2018-09-30T08:26:31.603Z,101599.98
2018-09-30T08:29:00.599Z,101592.77
2018-09-30T08:31:29.931Z,101594.56
2018-09-30T08:33:59.576Z,101589.55
2018-09-30T08:36:28.929Z,101591.34
2018-09-30T08:38:57.981Z,101590.31
2018-09-30T08:41:27.213Z,101595.52
2018-09-30T08:43:56.366Z,101588.27
2018-09-30T08:46:25.522Z,101592.70
2018-09-30T08:48:54.513Z,101594.94
2018-09-30T08:51:23.638Z,101590.61
2018-09-30T08:53:52.753Z,101592.94
2018-09-30T08:56:22.011Z,101593.67
2018-09-30T08:58:51.349Z,101589.16
2018-09-30T09:01:20.630Z,101593.95
2018-09-30T09:03:49.732Z,101589.99
2018-09-30T09:06:18.770Z,101593.64
2018-09-30T09:08:47.967Z,101589.66
2018-09-30T09:11:17.294Z,101584.61
2018-09-30T09:13:46.296Z,101579.44
2018-09-30T09:16:15.447Z,101578.58
2018-09-30T09:18:44.654Z,101573.78
2018-09-30T09:21:13.819Z,101572.83
2018-09-30T09:23:43.107Z,101572.89
2018-09-30T09:26:12.098Z,101569.66
2018-09-30T09:28:41.093Z,101567.08
2018-09-30T09:31:10.230Z,101561.89
2018-09-30T09:33:39.525Z,101543.42
2018-09-30T09:36:08.545Z,101545.04
2018-09-30T09:38:37.548Z,101544.89
2018-09-30T09:41:06.874Z,101539.16
2018-09-30T09:43:35.900Z,101534.87
2018-09-30T09:46:04.899Z,101530.92
2018-09-30T09:48:34.176Z,101528.83
2018-09-30T09:51:03.428Z,101523.27
2018-09-30T09:53:32.570Z,101517.63
2018-09-30T09:56:02.160Z,101513.77
2018-09-30T09:58:31.383Z,101515.97
2018-09-30T10:01:05.030Z,101508.64
2018-09-30T10:03:34.083Z,101504.71
2018-09-30T10:06:03.229Z,101493.45
2018-09-30T10:08:32.328Z,101494.41
2018-09-30T10:11:01.554Z,101490.53
2018-09-30T10:13:30.951Z,101478.74
2018-09-30T10:15:59.925Z,101472.73
2018-09-30T10:18:28.947Z,101465.83
2018-09-30T10:20:58.149Z,101464.09
2018-09-30T10:23:27.242Z,101451.05
2018-09-30T10:25:56.598Z,101444.17
2018-09-30T10:28:26.326Z,101444.17
2018-09-30T10:30:55.381Z,101443.52
2018-09-30T10:33:24.367Z,101438.50
2018-09-30T10:35:53.397Z,101430.74
2018-09-30T10:38:22.439Z,101432.03
2018-09-30T10:40:51.481Z,101426.84
2018-09-30T10:43:20.813Z,101423.37
2018-09-30T10:45:50.789Z,101420.33
2018-09-30T10:48:19.792Z,101422.95
2018-09-30T10:50:49.199Z,101410.80
2018-09-30T10:53:18.320Z,101412.98
2018-09-30T10:55:47.354Z,101410.36
2018-09-30T10:58:16.542Z,101399.55
2018-09-30T11:00:45.617Z,101399.12
2018-09-30T11:03:14.800Z,101391.69
2018-09-30T11:05:43.830Z,101393.44
2018-09-30T11:08:12.817Z,101394.38
2018-09-30T11:10:41.819Z,101379.20
2018-09-30T11:13:10.798Z,101382.25
2018-09-30T11:15:39.814Z,101382.59
2018-09-30T11:18:08.822Z,101371.70
2018-09-30T11:20:37.857Z,101365.80
2018-09-30T11:23:07.344Z,101364.83
2018-09-30T11:25:36.363Z,101360.53
2018-09-30T11:28:05.395Z,101356.88
2018-09-30T11:30:34.722Z,101347.87
2018-09-30T11:33:03.794Z,101345.41
2018-09-30T11:35:33.056Z,101341.55
2018-09-30T11:38:02.051Z,101336.19
2018-09-30T11:40:31.066Z,101327.23
2018-09-30T11:43:00.577Z,101324.98
2018-09-30T11:45:29.584Z,101320.89
2018-09-30T11:47:59.355Z,101315.72
2018-09-30T11:50:29.049Z,101312.75
2018-09-30T11:52:58.795Z,101304.00
2018-09-30T11:55:28.509Z,101306.03
2018-09-30T11:57:58.317Z,101297.08
2018-09-30T12:00:28.610Z,101298.86
2018-09-30T12:02:58.136Z,101296.90
2018-09-30T12:05:27.650Z,101295.66
2018-09-30T12:07:57.865Z,101293.83
2018-09-30T12:10:27.694Z,101288.43
2018-09-30T12:12:57.135Z,101281.22
2018-09-30T12:15:26.234Z,101285.02
2018-09-30T12:17:55.378Z,101272.50
2018-09-30T12:20:24.380Z,101273.10
2018-09-30T12:22:55.031Z,101271.31
2018-09-30T12:25:24.296Z,101257.71
2018-09-30T12:27:53.482Z,101258.66
2018-09-30T12:30:25.442Z,101250.61
2018-09-30T12:32:54.490Z,101255.66
2018-09-30T12:35:23.573Z,101250.70
2018-09-30T12:37:52.887Z,101240.76
2018-09-30T12:40:21.865Z,101236.38
2018-09-30T12:42:50.855Z,101235.58
2018-09-30T12:45:20.175Z,101233.52
2018-09-30T12:47:49.747Z,101230.78
2018-09-30T12:50:19.545Z,101215.23
2018-09-30T12:52:49.002Z,101208.97
2018-09-30T12:55:18.360Z,101205.33
2018-09-30T12:57:47.688Z,101202.38
2018-09-30T13:00:17.670Z,101204.38
2018-09-30T13:02:47.138Z,101196.63
2018-09-30T13:05:16.440Z,101196.11
2018-09-30T13:07:45.478Z,101191.41
2018-09-30T13:10:14.539Z,101187.05
2018-09-30T13:12:43.509Z,101182.69
2018-09-30T13:15:12.716Z,101181.99
2018-09-30T13:17:41.829Z,101178.08
2018-09-30T13:20:10.823Z,101178.12
2018-09-30T13:22:39.795Z,101181.11
2018-09-30T13:25:08.752Z,101171.94
2018-09-30T13:27:37.731Z,101170.07
2018-09-30T13:30:06.972Z,101167.62
2018-09-30T13:32:35.965Z,101163.20
2018-09-30T13:35:05.291Z,101153.45
2018-09-30T13:37:34.368Z,101150.84
2018-09-30T13:40:03.411Z,101154.72
2018-09-30T13:42:32.327Z,101146.86
2018-09-30T13:45:01.484Z,101149.01
2018-09-30T13:47:30.517Z,101151.30
2018-09-30T13:49:59.596Z,101144.70
2018-09-30T13:52:28.642Z,101137.77
2018-09-30T13:54:58.239Z,101143.83
2018-09-30T13:57:27.561Z,101140.77
2018-09-30T13:59:57.006Z,101134.79
2018-09-30T14:02:25.981Z,101130.30
2018-09-30T14:04:54.946Z,101121.00
2018-09-30T14:07:23.908Z,101126.30
2018-09-30T14:09:52.897Z,101125.41
2018-09-30T14:12:22.138Z,101125.60
2018-09-30T14:14:51.426Z,101121.60
2018-09-30T14:17:20.823Z,101115.63
2018-09-30T14:19:49.842Z,101110.70
2018-09-30T14:22:18.978Z,101106.14
2018-09-30T14:24:48.002Z,101104.80
2018-09-30T14:27:17.111Z,101100.34
2018-09-30T14:29:46.043Z,101103.51
2018-09-30T14:32:15.323Z,101098.74
2018-09-30T14:34:44.555Z,101097.80
2018-09-30T14:37:13.546Z,101086.47
2018-09-30T14:39:44.282Z,101086.08
2018-09-30T14:42:14.613Z,101075.09
2018-09-30T14:44:44.077Z,101065.02
2018-09-30T14:47:13.788Z,101057.54
2018-09-30T14:49:43.252Z,101063.00
2018-09-30T14:52:12.993Z,101062.64
2018-09-30T14:54:43.657Z,101053.76
2018-09-30T14:57:13.885Z,101052.80
2018-09-30T14:59:44.171Z,101055.14
2018-09-30T15:02:13.588Z,101054.43
2018-09-30T15:04:43.499Z,101052.94
2018-09-30T15:07:13.151Z,101047.32
2018-09-30T15:09:43.886Z,101047.28
2018-09-30T15:12:14.317Z,101043.89
2018-09-30T15:14:44.386Z,101038.39
2018-09-30T15:17:14.330Z,101042.20
2018-09-30T15:19:44.886Z,101034.77
2018-09-30T15:22:14.046Z,101038.70
2018-09-30T15:24:43.278Z,101027.42
2018-09-30T15:27:12.355Z,101023.42
2018-09-30T15:29:41.577Z,101029.09
2018-09-30T15:32:10.576Z,101029.44
2018-09-30T15:34:39.589Z,101030.78
2018-09-30T15:37:08.855Z,101025.42
2018-09-30T15:39:37.846Z,101018.98
2018-09-30T15:42:06.826Z,101018.37
2018-09-30T15:44:35.876Z,101012.14
2018-09-30T15:47:04.876Z,101014.36
2018-09-30T15:49:33.883Z,101010.94
2018-09-30T15:52:02.882Z,101010.41
2018-09-30T15:54:31.972Z,101007.78
2018-09-30T15:57:00.963Z,101005.69
2018-09-30T15:59:29.978Z,101012.75
2018-09-30T16:01:59.027Z,101020.35
2018-09-30T16:04:28.051Z,101018.16
2018-09-30T16:06:57.442Z,101005.09
2018-09-30T16:09:26.882Z,101010.85
2018-09-30T16:11:56.281Z,101003.53
2018-09-30T16:17:04.553Z,101001.77
2018-09-30T16:19:33.725Z,101000.52
2018-09-30T16:22:02.728Z,101000.98
2018-09-30T16:24:32.866Z,101007.34
2018-09-30T16:27:02.767Z,101013.28
2018-09-30T16:29:32.192Z,101003.39
2018-09-30T16:32:01.551Z,101005.55
2018-09-30T16:34:30.830Z,101008.67
2018-09-30T16:37:00.235Z,101001.05
2018-09-30T16:39:30.179Z,101003.73
2018-09-30T16:42:01.859Z,101005.59
2018-09-30T16:44:31.245Z,101008.50
2018-09-30T16:47:00.473Z,101013.36
2018-09-30T16:49:29.833Z,101005.00
2018-09-30T16:51:58.962Z,101007.95
2018-09-30T16:54:28.351Z,101004.05
2018-09-30T16:56:57.474Z,101010.14
2018-09-30T16:59:26.877Z,101014.11
2018-09-30T17:01:56.033Z,101009.86
2018-09-30T17:04:25.080Z,101013.84
2018-09-30T17:06:54.265Z,101010.75
2018-09-30T17:09:23.789Z,101013.48
2018-09-30T17:11:52.855Z,101018.30
2018-09-30T17:14:22.274Z,101013.17
2018-09-30T17:16:51.485Z,101007.02
2018-09-30T17:19:20.473Z,101011.58
2018-09-30T17:21:49.846Z,101018.98
2018-09-30T17:24:18.827Z,101015.52
2018-09-30T17:26:47.857Z,101016.45
2018-09-30T17:29:17.007Z,101015.19
2018-09-30T17:31:46.228Z,101009.54
2018-09-30T17:34:15.238Z,101017.83
2018-09-30T17:36:44.269Z,101014.38
2018-09-30T17:39:13.285Z,101010.98
2018-09-30T17:41:42.359Z,101006.30
2018-09-30T17:44:11.404Z,101002.41
2018-09-30T17:46:40.391Z,101012.87
2018-09-30T17:49:09.637Z,101007.26
2018-09-30T17:51:38.757Z,100999.42
2018-09-30T17:54:08.841Z,100997.72
2018-09-30T17:56:38.742Z,100999.53
2018-09-30T17:59:08.393Z,101003.87
2018-09-30T18:01:37.662Z,101004.98
2018-09-30T18:04:08.493Z,100997.69
2018-09-30T18:06:37.667Z,100991.00
2018-09-30T18:09:10.159Z,100992.95
2018-09-30T18:11:39.353Z,100989.37
2018-09-30T18:14:08.356Z,100989.42
2018-09-30T18:16:37.493Z,100983.63
2018-09-30T18:19:06.517Z,100986.32
2018-09-30T18:21:35.669Z,100986.47
2018-09-30T18:24:05.168Z,100987.33
2018-09-30T18:26:34.221Z,100993.31
2018-09-30T18:29:03.445Z,100990.66
2018-09-30T18:31:32.500Z,100994.17
2018-09-30T18:34:02.345Z,100988.03
2018-09-30T18:36:31.552Z,100990.73
2018-09-30T18:39:00.797Z,100990.73
2018-09-30T18:41:30.260Z,100992.57
2018-09-30T18:43:59.573Z,100987.31
2018-09-30T18:46:29.039Z,100986.45
2018-09-30T18:48:58.337Z,100986.10
2018-09-30T18:51:28.062Z,100984.02
2018-09-30T18:53:57.429Z,100982.13
2018-09-30T18:56:26.831Z,100972.88
2018-09-30T18:58:56.012Z,100973.40
2018-09-30T19:01:25.335Z,100977.66
2018-09-30T19:03:54.498Z,100978.93
2018-09-30T19:06:23.612Z,100978.64
2018-09-30T19:08:52.695Z,100974.41
2018-09-30T19:11:21.872Z,100978.19
2018-09-30T19:13:51.080Z,100972.57
2018-09-30T19:16:20.306Z,100971.72
2018-09-30T19:18:49.414Z,100962.56
2018-09-30T19:21:18.786Z,100963.19
2018-09-30T19:23:47.803Z,100961.84
2018-09-30T19:26:16.811Z,100956.53
2018-09-30T19:28:45.895Z,100954.41
2018-09-30T19:31:15.308Z,100951.50
2018-09-30T19:33:44.640Z,100955.10
2018-09-30T19:36:13.689Z,100953.77
2018-09-30T19:38:43.009Z,100948.50
2018-09-30T19:41:12.033Z,100945.89
2018-09-30T19:43:41.025Z,100951.55
2018-09-30T19:46:10.235Z,100943.25
2018-09-30T19:48:39.336Z,100930.66
2018-09-30T19:51:08.266Z,100936.66
2018-09-30T19:53:37.485Z,100928.48
2018-09-30T19:56:06.482Z,100931.16
2018-09-30T19:58:35.526Z,100922.02
2018-09-30T20:01:04.604Z,100933.39
2018-09-30T20:03:33.578Z,100930.88
2018-09-30T20:06:02.912Z,100928.70
2018-09-30T20:08:32.695Z,100927.92
2018-09-30T20:11:02.077Z,100925.77
2018-09-30T20:13:31.339Z,100930.47
2018-09-30T20:16:00.748Z,100927.44
2018-09-30T20:18:29.896Z,100924.42
2018-09-30T20:20:59.204Z,100920.98
2018-09-30T20:23:28.124Z,100921.44
2018-09-30T20:25:57.146Z,100918.40
2018-09-30T20:28:26.294Z,100922.74
2018-09-30T20:30:56.260Z,100919.72
2018-09-30T20:33:25.308Z,100914.95
2018-09-30T20:35:54.358Z,100918.80
2018-09-30T20:38:25.454Z,100909.34
2018-09-30T20:40:55.301Z,100907.19
2018-09-30T20:43:24.637Z,100905.89
2018-09-30T20:45:53.673Z,100905.42
2018-09-30T20:48:23.043Z,100895.50
2018-09-30T20:50:52.850Z,100895.95
2018-09-30T20:53:22.459Z,100895.95
2018-09-30T20:55:51.581Z,100891.22
2018-09-30T20:58:21.610Z,100886.91
2018-09-30T21:00:51.807Z,100883.42
2018-09-30T21:03:22.410Z,100887.34
2018-09-30T21:06:57.060Z,100887.31
2018-09-30T21:09:26.588Z,100884.31
2018-09-30T21:11:56.132Z,100887.31
2018-09-30T21:14:25.180Z,100884.28
2018-09-30T21:16:55.132Z,100877.39
2018-09-30T21:19:25.626Z,100876.91
2018-09-30T21:21:54.712Z,100872.63
2018-09-30T21:24:24.592Z,100870.06
2018-09-30T21:26:53.740Z,100867.91
2018-09-30T21:29:22.831Z,100874.80
2018-09-30T21:31:51.930Z,100867.03
2018-09-30T21:34:21.765Z,100867.05
2018-09-30T21:36:51.790Z,100868.33
2018-09-30T21:39:21.516Z,100871.80
2018-09-30T21:41:50.594Z,100870.07
2018-09-30T21:44:20.187Z,100868.34
2018-09-30T21:46:50.414Z,100861.86
2018-09-30T21:49:19.483Z,100870.07
2018-09-30T21:51:49.011Z,100868.77
2018-09-30T21:54:19.960Z,100867.04
2018-09-30T21:56:50.110Z,100858.41
2018-09-30T21:59:20.035Z,100853.59
2018-09-30T22:01:49.657Z,100846.83
2018-09-30T22:04:18.576Z,100843.95
2018-09-30T22:06:49.534Z,100843.25
2018-09-30T22:09:18.814Z,100839.71
2018-09-30T22:11:48.587Z,100835.83
2018-09-30T22:14:24.459Z,100831.16
2018-09-30T22:16:54.334Z,100835.53
2018-09-30T22:19:24.356Z,100834.06
2018-09-30T22:21:54.392Z,100825.92
2018-09-30T22:24:24.407Z,100825.91
2018-09-30T22:26:53.553Z,100826.42
2018-09-30T22:29:22.565Z,100826.42
2018-09-30T22:31:52.617Z,100826.87
2018-09-30T22:34:22.816Z,100826.02
2018-09-30T22:36:51.809Z,100831.91
2018-09-30T22:39:22.327Z,100828.33
2018-09-30T22:41:53.932Z,100823.33
2018-09-30T22:44:24.380Z,100824.71
2018-09-30T22:46:53.411Z,100823.34
2018-09-30T22:49:23.112Z,100819.95
2018-09-30T22:51:52.079Z,100817.69
2018-09-30T22:54:21.982Z,100819.95
2018-09-30T22:56:51.923Z,100817.74
2018-09-30T22:59:21.223Z,100815.22
2018-09-30T23:01:50.483Z,100809.53
2018-09-30T23:04:19.491Z,100808.67
2018-09-30T23:06:48.580Z,100806.06
2018-09-30T23:09:17.924Z,100802.65
2018-09-30T23:11:47.443Z,100801.78
2018-09-30T23:14:16.427Z,100802.23
2018-09-30T23:16:46.072Z,100800.11
2018-09-30T23:19:15.485Z,100804.02
2018-09-30T23:21:44.543Z,100793.27
2018-09-30T23:24:13.507Z,100801.05
2018-09-30T23:26:43.065Z,100801.48
2018-09-30T23:29:12.345Z,100802.76
2018-09-30T23:31:41.717Z,100804.90
2018-09-30T23:34:10.697Z,100803.61
2018-09-30T23:36:39.696Z,100799.31
2018-09-30T23:39:11.025Z,100796.30
2018-09-30T23:41:40.275Z,100796.30
2018-09-30T23:44:09.882Z,100797.14
2018-09-30T23:46:38.859Z,100801.45
2018-09-30T23:49:07.874Z,100799.31
2018-09-30T23:51:36.883Z,100802.73
2018-09-30T23:54:05.923Z,100801.88
2018-09-30T23:56:34.991Z,100797.14
2018-09-30T23:59:03.995Z,100797.58
